Time;durP1;ratioP1;P1;durP2;ratioP2;P2;SDS_P1;SDS_P2;PMS_P1;PMS_P2;Temp;Humidity;BMP_temperature;BMP_pressure;BME280_temperature;BME280_humidity;BME280_pressure;Samples;Min_cycle;Max_cycle;Signal;HPM_P1;HPM_P2
2022/01/14 00:00:52;;;;;;;27.23;15.90;;;3.40;99.90;;;;;;5055580;28;20270;-67
2022/01/14 00:03:17;;;;;;;25.23;15.37;;;3.40;99.90;;;;;;5055842;28;20685;-67
2022/01/14 00:05:43;;;;;;;24.50;15.70;;;3.50;99.90;;;;;;5054901;28;20181;-67
2022/01/14 00:08:08;;;;;;;27.63;15.80;;;3.50;99.90;;;;;;5054973;28;20186;-66
2022/01/14 00:10:35;;;;;;;27.07;17.93;;;3.60;99.90;;;;;;5054995;28;20273;-67
2022/01/14 00:13:16;;;;;;;25.83;16.60;;;3.60;99.90;;;;;;5054898;28;20734;-66
2022/01/14 00:15:42;;;;;;;24.40;15.70;;;3.70;99.90;;;;;;5054607;28;20500;-66
2022/01/14 00:18:07;;;;;;;27.83;16.33;;;3.70;99.90;;;;;;5054434;28;20924;-66
2022/01/14 00:20:33;;;;;;;24.50;16.40;;;3.70;99.90;;;;;;5054841;28;20167;-67
2022/01/14 00:23:00;;;;;;;24.80;16.40;;;3.70;99.90;;;;;;5053789;28;20697;-65
2022/01/14 00:33:29;;;;;;;21.30;15.60;;;3.70;99.90;;;;;;5086018;28;20388;-69
2022/01/14 00:35:55;;;;;;;29.57;16.53;;;3.60;99.90;;;;;;5085395;28;20791;-69
2022/01/14 00:38:20;;;;;;;24.53;15.50;;;3.70;99.90;;;;;;5093710;28;20265;-69
2022/01/14 00:40:46;;;;;;;24.67;16.40;;;3.60;99.90;;;;;;5075376;28;20255;-69
2022/01/14 00:43:12;;;;;;;31.03;17.20;;;3.60;99.90;;;;;;5093970;28;20176;-70
2022/01/14 00:45:38;;;;;;;28.53;16.83;;;3.60;99.90;;;;;;5093739;28;20201;-70
2022/01/14 00:48:04;;;;;;;23.97;15.30;;;3.50;99.90;;;;;;5093229;28;20442;-70
2022/01/14 00:50:30;;;;;;;29.93;17.83;;;3.50;99.90;;;;;;5093938;28;20408;-69
2022/01/14 00:52:56;;;;;;;22.67;16.10;;;3.50;99.90;;;;;;5066402;28;20437;-69
2022/01/14 00:55:38;;;;;;;26.03;15.73;;;3.40;99.90;;;;;;5052620;28;20437;-68
2022/01/14 01:00:48;;;;;;;26.27;16.70;;;3.40;99.90;;;;;;5056560;28;20385;-70
2022/01/14 01:03:13;;;;;;;25.40;17.03;;;3.40;99.90;;;;;;5053673;28;20910;-70
2022/01/14 01:05:39;;;;;;;25.43;14.77;;;3.30;99.90;;;;;;5053104;28;20274;-70
2022/01/14 01:08:10;;;;;;;27.00;16.00;;;3.30;99.90;;;;;;5052829;28;20205;-71
2022/01/14 01:10:39;;;;;;;29.20;16.60;;;3.30;99.90;;;;;;5054176;28;20606;-69
2022/01/14 01:13:16;;;;;;;25.90;16.57;;;3.30;99.90;;;;;;5053172;28;20407;-70
2022/01/14 01:15:41;;;;;;;30.87;17.00;;;3.30;99.90;;;;;;5052575;28;20785;-69
2022/01/14 01:18:07;;;;;;;26.43;15.53;;;3.30;99.90;;;;;;5053129;28;20475;-71
2022/01/14 01:20:33;;;;;;;29.93;17.07;;;3.20;99.90;;;;;;5053114;28;20182;-71
2022/01/14 01:22:58;;;;;;;26.20;17.10;;;3.20;99.90;;;;;;5053152;28;20178;-70
2022/01/14 01:25:27;;;;;;;28.20;16.20;;;3.10;99.90;;;;;;5052745;28;20513;-70
2022/01/14 01:27:54;;;;;;;27.13;16.60;;;3.20;99.90;;;;;;5053032;28;20198;-70
2022/01/14 01:30:49;;;;;;;29.77;16.27;;;3.30;99.90;;;;;;5052776;28;20411;-72
2022/01/14 01:33:12;;;;;;;23.13;16.53;;;3.40;99.90;;;;;;5052546;28;20455;-69
2022/01/14 01:35:38;;;;;;;28.00;17.27;;;3.50;99.90;;;;;;5052468;28;20501;-70
2022/01/14 01:38:03;;;;;;;25.87;17.60;;;3.50;99.90;;;;;;5052265;28;20194;-68
2022/01/14 01:40:29;;;;;;;29.17;17.93;;;3.50;99.90;;;;;;5052374;28;20171;-69
2022/01/14 01:42:56;;;;;;;28.10;16.77;;;3.50;99.90;;;;;;5052768;28;20248;-69
2022/01/14 01:45:25;;;;;;;23.40;16.57;;;3.50;99.90;;;;;;5052483;28;20390;-68
2022/01/14 01:47:54;;;;;;;23.70;15.77;;;3.50;99.90;;;;;;5052032;28;20428;-68
2022/01/14 01:50:23;;;;;;;25.97;16.80;;;3.60;99.90;;;;;;5052382;28;20465;-69
2022/01/14 01:52:49;;;;;;;27.27;17.90;;;3.60;99.90;;;;;;5052616;28;20900;-68
2022/01/14 01:55:16;;;;;;;24.97;15.43;;;3.70;99.90;;;;;;5052343;28;20436;-70
2022/01/14 01:57:43;;;;;;;27.33;18.60;;;3.70;99.90;;;;;;5051907;28;20444;-70
2022/01/14 02:00:15;;;;;;;24.70;17.33;;;3.70;99.90;;;;;;5051910;28;20444;-69
2022/01/14 02:02:41;;;;;;;32.67;17.47;;;3.70;99.90;;;;;;5051828;28;20415;-69
2022/01/14 02:05:08;;;;;;;31.00;17.63;;;3.80;99.90;;;;;;5052105;28;20466;-69
2022/01/14 02:07:34;;;;;;;27.33;18.33;;;3.90;99.90;;;;;;5033552;28;20449;-70
2022/01/14 02:10:00;;;;;;;21.90;16.10;;;3.80;99.90;;;;;;5051954;28;20459;-69
2022/01/14 02:12:34;;;;;;;28.57;17.07;;;3.90;99.90;;;;;;5051936;28;20784;-69
2022/01/14 02:15:25;;;;;;;29.77;18.37;;;3.90;99.90;;;;;;5052004;28;20162;-68
2022/01/14 02:23:10;;;;;;;23.50;16.70;;;4.00;99.90;;;;;;5053451;28;20760;-69
2022/01/14 02:25:36;;;;;;;29.80;16.00;;;4.00;99.90;;;;;;5061785;28;20419;-68
2022/01/14 02:28:06;;;;;;;27.17;16.90;;;3.90;99.90;;;;;;5067528;28;20234;-70
2022/01/14 02:30:33;;;;;;;28.83;18.53;;;3.90;99.90;;;;;;5078424;28;20465;-69
2022/01/14 02:32:59;;;;;;;23.37;16.10;;;4.00;99.90;;;;;;5087632;28;20418;-69
2022/01/14 02:35:25;;;;;;;25.37;16.47;;;3.90;99.90;;;;;;5092210;28;20409;-69
2022/01/14 02:37:51;;;;;;;28.07;17.60;;;3.90;99.90;;;;;;5073437;28;20184;-69
2022/01/14 02:40:18;;;;;;;24.73;16.80;;;3.90;99.90;;;;;;5092214;28;20536;-69
2022/01/14 02:42:44;;;;;;;25.70;18.10;;;3.90;99.90;;;;;;5091938;28;20905;-70
2022/01/14 02:45:11;;;;;;;25.37;17.07;;;3.90;99.90;;;;;;5092009;28;20412;-69
2022/01/14 02:47:37;;;;;;;24.90;17.20;;;3.90;99.90;;;;;;5073692;28;20435;-70
2022/01/14 02:50:07;;;;;;;24.90;16.90;;;3.80;99.90;;;;;;5092011;28;20452;-70
2022/01/14 02:52:56;;;;;;;27.67;18.07;;;3.80;99.90;;;;;;5091880;28;20408;-70
2022/01/14 02:55:28;;;;;;;25.70;17.30;;;3.80;99.90;;;;;;5092053;28;20430;-69
2022/01/14 02:57:55;;;;;;;28.97;18.00;;;3.90;99.90;;;;;;5091894;28;20828;-70
2022/01/14 03:00:23;;;;;;;26.03;17.70;;;3.80;99.90;;;;;;5091980;28;20431;-70
2022/01/14 03:02:50;;;;;;;22.97;16.67;;;3.80;99.90;;;;;;5092035;28;20440;-70
2022/01/14 03:05:18;;;;;;;28.10;16.87;;;3.70;99.90;;;;;;5091992;28;20468;-70
2022/01/14 03:07:44;;;;;;;24.20;16.43;;;3.60;99.90;;;;;;5092228;28;20432;-71
2022/01/14 03:10:12;;;;;;;30.63;17.20;;;3.60;99.90;;;;;;5092282;28;20443;-70
2022/01/14 03:12:40;;;;;;;21.30;15.27;;;3.50;99.90;;;;;;5091821;28;20472;-69
2022/01/14 03:15:06;;;;;;;24.73;16.17;;;3.50;99.90;;;;;;5091879;28;20402;-70
2022/01/14 03:17:32;;;;;;;21.07;14.80;;;3.60;99.90;;;;;;5091566;28;20415;-69
2022/01/14 03:20:00;;;;;;;23.87;15.83;;;3.60;99.90;;;;;;5091389;28;20407;-69
2022/01/14 03:22:34;;;;;;;25.97;16.00;;;3.60;99.90;;;;;;5073532;28;20455;-69
2022/01/14 03:27:45;;;;;;;21.67;15.77;;;3.60;99.90;;;;;;5091358;28;20579;-69
2022/01/14 03:30:12;;;;;;;20.90;15.77;;;3.60;99.90;;;;;;5090879;28;20518;-69
2022/01/14 03:32:38;;;;;;;22.07;15.00;;;3.50;99.90;;;;;;5093067;28;20177;-69
2022/01/14 03:35:04;;;;;;;25.00;15.30;;;3.50;99.90;;;;;;5094922;28;20412;-70
2022/01/14 03:37:29;;;;;;;29.60;15.90;;;3.40;99.90;;;;;;5095390;28;20214;-69
2022/01/14 03:39:55;;;;;;;27.37;16.07;;;3.50;99.90;;;;;;5095383;28;20917;-69
2022/01/14 03:42:20;;;;;;;21.03;15.00;;;3.50;99.90;;;;;;5094684;28;20639;-69
2022/01/14 03:44:46;;;;;;;25.57;16.13;;;3.50;99.90;;;;;;5094987;28;20174;-70
2022/01/14 03:47:11;;;;;;;25.47;15.80;;;3.50;99.90;;;;;;5095699;28;20267;-69
2022/01/14 03:49:37;;;;;;;24.50;16.13;;;3.50;99.90;;;;;;5095823;28;20200;-68
2022/01/14 03:52:02;;;;;;;27.77;16.40;;;3.50;99.90;;;;;;5096578;28;20254;-71
2022/01/14 03:54:29;;;;;;;23.63;16.53;;;3.50;99.90;;;;;;5095919;28;20234;-71
2022/01/14 03:56:55;;;;;;;24.73;16.57;;;3.30;99.90;;;;;;5095287;28;20233;-69
2022/01/14 03:59:20;;;;;;;26.40;16.50;;;3.40;99.90;;;;;;5096163;28;20407;-70
2022/01/14 04:01:46;;;;;;;25.67;17.47;;;3.30;99.90;;;;;;5098152;28;20613;-70
2022/01/14 04:04:12;;;;;;;23.20;17.33;;;3.20;99.90;;;;;;5095891;28;20177;-71
2022/01/14 04:06:37;;;;;;;23.27;15.30;;;3.20;99.90;;;;;;5097605;28;20443;-70
2022/01/14 04:09:03;;;;;;;29.47;18.13;;;3.20;99.90;;;;;;5097491;28;20577;-71
2022/01/14 04:11:30;;;;;;;27.83;17.60;;;3.20;99.90;;;;;;5100247;28;20245;-69
2022/01/14 04:14:06;;;;;;;26.13;17.77;;;3.20;99.90;;;;;;5099250;28;20407;-69
2022/01/14 04:16:32;;;;;;;29.63;18.23;;;3.20;99.90;;;;;;5094849;28;20395;-70
2022/01/14 04:18:57;;;;;;;23.23;17.47;;;3.30;99.90;;;;;;5095068;28;20426;-70
2022/01/14 04:21:23;;;;;;;26.83;17.17;;;3.30;99.90;;;;;;5094456;28;20523;-72
2022/01/14 04:23:48;;;;;;;28.90;16.80;;;3.30;99.90;;;;;;5084756;28;20665;-70
2022/01/14 04:26:15;;;;;;;25.90;17.00;;;3.40;99.90;;;;;;5079110;28;20257;-69
2022/01/14 04:28:40;;;;;;;23.80;16.17;;;3.40;99.90;;;;;;5079145;28;20201;-70
2022/01/14 04:31:08;;;;;;;23.73;15.90;;;3.40;99.90;;;;;;5085793;28;20409;-70
2022/01/14 04:33:35;;;;;;;27.30;16.60;;;3.40;99.90;;;;;;5089105;28;20167;-70
2022/01/14 04:36:01;;;;;;;27.87;17.03;;;3.40;99.90;;;;;;5090717;28;20886;-70
2022/01/14 04:38:28;;;;;;;25.33;15.77;;;3.40;99.90;;;;;;5093795;28;20967;-70
2022/01/14 04:40:54;;;;;;;24.43;19.00;;;3.30;99.90;;;;;;5094025;28;20415;-70
2022/01/14 04:43:21;;;;;;;23.37;16.53;;;3.30;99.90;;;;;;5093640;28;20421;-69
2022/01/14 04:48:26;;;;;;;24.90;16.37;;;3.20;99.90;;;;;;5094433;28;20450;-70
2022/01/14 04:50:52;;;;;;;28.00;17.27;;;3.20;99.90;;;;;;5093802;28;20437;-69
2022/01/14 04:53:18;;;;;;;24.63;17.50;;;3.10;99.90;;;;;;5093998;28;20395;-69
2022/01/14 04:55:44;;;;;;;30.57;18.10;;;3.20;99.90;;;;;;5094218;28;20419;-69
2022/01/14 04:58:09;;;;;;;25.90;17.23;;;3.10;99.90;;;;;;5093546;28;20189;-69
2022/01/14 05:00:37;;;;;;;26.33;16.53;;;3.20;99.90;;;;;;5093708;28;20218;-68
2022/01/14 05:03:03;;;;;;;25.07;15.73;;;3.20;99.90;;;;;;5076380;28;20175;-70
2022/01/14 05:05:32;;;;;;;22.53;15.50;;;3.20;99.90;;;;;;5094043;28;20764;-70
2022/01/14 05:07:58;;;;;;;20.00;14.57;;;3.30;99.90;;;;;;5094953;28;20212;-70
2022/01/14 05:12:55;;;;;;;24.53;16.97;;;3.20;99.90;;;;;;5097109;28;20421;-70
2022/01/14 05:15:21;;;;;;;27.83;17.37;;;3.20;99.90;;;;;;5108175;28;20431;-67
2022/01/14 05:17:48;;;;;;;30.00;17.00;;;3.20;99.90;;;;;;5106891;28;20434;-70
2022/01/14 05:20:15;;;;;;;26.10;17.67;;;3.30;99.90;;;;;;5088927;28;20196;-69
2022/01/14 05:22:41;;;;;;;25.10;16.33;;;3.20;99.90;;;;;;5076091;28;20443;-71
2022/01/14 05:25:08;;;;;;;20.10;14.87;;;3.20;99.90;;;;;;5083106;28;20414;-71
2022/01/14 05:27:35;;;;;;;21.37;15.47;;;3.20;99.90;;;;;;5069485;28;20489;-72
2022/01/14 05:30:01;;;;;;;27.80;16.83;;;3.20;99.90;;;;;;5077434;28;20864;-70
2022/01/14 05:32:27;;;;;;;31.40;16.47;;;3.20;99.90;;;;;;5064485;28;20474;-69
2022/01/14 05:34:53;;;;;;;24.97;16.17;;;3.20;99.90;;;;;;5069961;28;20492;-70
2022/01/14 05:37:18;;;;;;;24.70;17.10;;;3.20;99.90;;;;;;5062781;28;20460;-70
2022/01/14 05:39:44;;;;;;;22.40;15.73;;;3.20;99.90;;;;;;5058081;28;20196;-69
2022/01/14 05:42:10;;;;;;;25.70;17.10;;;3.30;99.90;;;;;;5072228;28;20240;-70
2022/01/14 05:44:37;;;;;;;23.73;16.97;;;3.20;99.90;;;;;;5078458;28;20223;-69
2022/01/14 05:47:03;;;;;;;28.97;19.27;;;3.10;99.90;;;;;;5064652;28;20546;-68
2022/01/14 05:49:29;;;;;;;26.60;18.47;;;3.00;99.90;;;;;;5064850;28;20578;-68
2022/01/14 05:51:55;;;;;;;25.40;19.53;;;2.90;99.90;;;;;;5070502;28;20457;-70
2022/01/14 05:54:21;;;;;;;26.40;17.53;;;2.80;99.90;;;;;;5065769;28;20173;-70
2022/01/14 05:56:47;;;;;;;25.67;17.37;;;2.80;99.90;;;;;;5081016;28;20454;-70
2022/01/14 05:59:13;;;;;;;24.80;16.27;;;2.80;99.90;;;;;;5071744;28;20427;-71
2022/01/14 06:01:39;;;;;;;21.57;15.70;;;2.80;99.90;;;;;;5073383;28;20779;-72
2022/01/14 06:04:06;;;;;;;22.13;15.10;;;2.80;99.90;;;;;;5046325;28;20965;-68
2022/01/14 06:06:33;;;;;;;23.63;16.30;;;2.90;99.90;;;;;;5058611;28;20419;-69
2022/01/14 06:08:59;;;;;;;19.97;14.90;;;2.90;99.90;;;;;;5054027;28;20823;-70
2022/01/14 06:11:25;;;;;;;21.00;16.10;;;2.80;99.90;;;;;;5080458;28;20416;-69
2022/01/14 06:13:51;;;;;;;23.70;17.00;;;2.70;99.90;;;;;;5072414;28;20403;-69
2022/01/14 06:16:16;;;;;;;28.50;17.50;;;2.80;99.90;;;;;;5072700;28;20969;-70
2022/01/14 06:18:42;;;;;;;28.37;17.53;;;2.90;99.90;;;;;;5071949;28;20289;-70
2022/01/14 06:21:08;;;;;;;23.17;16.70;;;2.90;99.90;;;;;;5053665;28;20197;-70
2022/01/14 06:23:34;;;;;;;26.80;17.27;;;3.00;99.90;;;;;;5070617;28;20427;-69
2022/01/14 06:26:01;;;;;;;25.20;16.67;;;3.00;99.90;;;;;;5078601;28;20246;-69
2022/01/14 06:28:26;;;;;;;25.70;17.93;;;3.00;99.90;;;;;;5096705;22;21000;-66
2022/01/14 06:30:52;;;;;;;21.23;16.10;;;3.10;99.90;;;;;;5086300;28;20447;-67
2022/01/14 06:33:18;;;;;;;23.50;17.13;;;2.90;99.90;;;;;;5090681;28;20169;-68
2022/01/14 06:35:44;;;;;;;24.57;17.07;;;2.80;99.90;;;;;;5085517;28;20827;-67
2022/01/14 06:38:10;;;;;;;23.00;16.60;;;2.70;99.90;;;;;;5091939;28;20411;-68
2022/01/14 06:40:37;;;;;;;25.87;17.37;;;2.80;99.90;;;;;;5093145;28;20207;-68
2022/01/14 06:43:04;;;;;;;26.13;17.50;;;2.90;99.90;;;;;;5093089;28;20434;-68
2022/01/14 06:45:30;;;;;;;28.67;19.40;;;2.90;99.90;;;;;;5092588;28;20395;-68
2022/01/14 06:47:56;;;;;;;30.40;18.30;;;3.00;99.90;;;;;;5092767;28;20425;-68
2022/01/14 06:50:22;;;;;;;24.30;15.90;;;3.00;99.90;;;;;;5092767;28;20862;-67
2022/01/14 06:52:47;;;;;;;31.30;18.30;;;3.10;99.90;;;;;;5092203;28;20166;-68
2022/01/14 06:55:13;;;;;;;24.93;16.90;;;3.00;99.90;;;;;;5092743;28;20196;-68
2022/01/14 06:57:39;;;;;;;31.00;19.10;;;3.00;99.90;;;;;;5091932;28;20902;-68
2022/01/14 07:00:12;;;;;;;28.33;19.37;;;3.00;99.90;;;;;;5092483;28;20323;-67
2022/01/14 07:02:38;;;;;;;30.93;20.30;;;2.90;99.90;;;;;;5092821;28;20737;-68
2022/01/14 07:05:05;;;;;;;31.17;16.43;;;2.80;99.90;;;;;;5092474;28;20463;-68
2022/01/14 07:07:30;;;;;;;26.13;17.40;;;2.70;99.90;;;;;;5094072;28;20188;-67
2022/01/14 07:09:56;;;;;;;25.30;18.37;;;2.70;99.90;;;;;;5096493;28;21020;-67
2022/01/14 07:12:27;;;;;;;24.13;17.80;;;2.70;99.90;;;;;;5079351;28;20181;-68
2022/01/14 07:14:54;;;;;;;27.90;18.57;;;2.80;99.90;;;;;;5097289;28;20403;-67
2022/01/14 07:17:23;;;;;;;23.97;16.67;;;2.90;99.90;;;;;;5095732;28;21174;-68
2022/01/14 07:19:51;;;;;;;22.93;16.70;;;2.90;99.90;;;;;;5095708;28;20399;-68
2022/01/14 07:22:17;;;;;;;22.57;17.23;;;2.90;99.90;;;;;;5096567;28;20429;-69
2022/01/14 07:24:43;;;;;;;24.87;15.97;;;2.90;99.90;;;;;;5096476;28;20821;-68
2022/01/14 07:27:08;;;;;;;26.83;18.40;;;2.90;99.90;;;;;;5095485;28;20177;-68
2022/01/14 07:29:34;;;;;;;25.63;17.53;;;2.90;99.90;;;;;;5096087;28;20511;-67
2022/01/14 07:31:59;;;;;;;27.00;17.67;;;3.00;99.90;;;;;;5096115;28;20215;-67
2022/01/14 07:34:26;;;;;;;26.90;18.00;;;3.00;99.90;;;;;;5096144;28;20229;-67
2022/01/14 07:36:52;;;;;;;28.40;18.37;;;3.00;99.90;;;;;;5095689;28;20180;-67
2022/01/14 07:39:19;;;;;;;26.90;19.50;;;2.90;99.90;;;;;;5096335;28;20856;-68
2022/01/14 07:41:45;;;;;;;22.80;16.67;;;2.90;99.90;;;;;;5077667;28;20423;-67
2022/01/14 07:44:11;;;;;;;25.97;17.67;;;3.00;99.90;;;;;;5096089;28;20425;-68
2022/01/14 07:46:37;;;;;;;23.47;17.80;;;3.10;99.90;;;;;;5096146;28;20498;-68
2022/01/14 07:49:03;;;;;;;24.63;19.13;;;3.10;99.90;;;;;;5095906;28;20974;-67
2022/01/14 07:51:29;;;;;;;26.80;20.03;;;3.10;99.90;;;;;;5096473;28;20238;-67
2022/01/14 07:53:56;;;;;;;28.90;19.43;;;3.00;99.90;;;;;;5096387;28;20489;-69
2022/01/14 07:56:22;;;;;;;28.37;19.83;;;3.00;99.90;;;;;;5095657;28;20172;-68
2022/01/14 07:58:48;;;;;;;29.27;19.87;;;3.10;99.90;;;;;;5095700;28;20532;-69
2022/01/14 08:01:14;;;;;;;28.80;21.23;;;3.10;99.90;;;;;;5096019;28;20411;-68
2022/01/14 08:03:39;;;;;;;34.60;21.00;;;3.10;99.90;;;;;;5096340;28;20973;-69
2022/01/14 08:06:05;;;;;;;36.37;23.10;;;3.20;99.90;;;;;;5095100;28;20200;-68
2022/01/14 08:08:31;;;;;;;35.13;22.87;;;3.20;99.90;;;;;;5095547;28;20192;-68
2022/01/14 08:10:58;;;;;;;31.73;21.87;;;3.20;99.90;;;;;;5095964;28;20218;-68
2022/01/14 08:13:23;;;;;;;34.20;21.47;;;3.30;99.90;;;;;;5078292;28;20421;-68
2022/01/14 08:15:49;;;;;;;38.67;23.67;;;3.40;99.90;;;;;;5095511;28;20403;-68
2022/01/14 08:18:14;;;;;;;31.93;22.47;;;3.40;99.90;;;;;;5094236;28;20185;-68
2022/01/14 08:20:40;;;;;;;37.47;26.33;;;3.50;99.90;;;;;;5094085;28;20393;-68
2022/01/14 08:23:06;;;;;;;36.13;24.83;;;3.60;99.90;;;;;;5077899;28;20182;-68
2022/01/14 08:25:31;;;;;;;42.77;26.43;;;3.60;99.90;;;;;;5066593;28;20202;-68
2022/01/14 08:27:57;;;;;;;36.00;24.57;;;3.60;99.90;;;;;;5059834;28;20677;-69
2022/01/14 08:30:22;;;;;;;34.70;23.80;;;3.70;99.90;;;;;;5054495;28;20705;-68
2022/01/14 08:32:48;;;;;;;40.93;26.83;;;3.70;99.90;;;;;;5056218;28;20593;-68
2022/01/14 08:35:13;;;;;;;41.67;25.67;;;3.70;99.90;;;;;;5074836;28;20179;-68
2022/01/14 08:37:39;;;;;;;38.63;24.67;;;3.70;99.90;;;;;;5073990;28;20187;-68
2022/01/14 08:40:07;;;;;;;34.97;23.10;;;3.80;99.90;;;;;;5056325;28;20519;-68
2022/01/14 08:42:33;;;;;;;40.10;24.37;;;3.90;99.90;;;;;;5074214;28;20503;-66
2022/01/14 08:44:58;;;;;;;37.60;25.27;;;3.90;99.90;;;;;;5074849;28;20448;-67
2022/01/14 08:47:24;;;;;;;38.37;24.57;;;3.90;99.90;;;;;;5073654;28;20457;-67
2022/01/14 08:49:50;;;;;;;36.23;24.57;;;4.00;99.90;;;;;;5055907;28;20261;-67
2022/01/14 08:52:16;;;;;;;36.00;23.20;;;4.00;99.90;;;;;;5074455;28;20168;-67
2022/01/14 08:54:42;;;;;;;45.77;26.10;;;4.10;99.90;;;;;;5073951;28;20201;-67
2022/01/14 08:57:08;;;;;;;39.90;25.20;;;4.10;99.90;;;;;;5072101;28;20174;-67
2022/01/14 08:59:34;;;;;;;43.27;28.47;;;4.00;99.90;;;;;;5074388;28;20420;-67
2022/01/14 09:02:00;;;;;;;38.37;25.60;;;4.00;99.90;;;;;;5074141;28;20420;-67
2022/01/14 09:04:25;;;;;;;38.67;26.57;;;4.10;99.90;;;;;;5074558;28;20189;-66
2022/01/14 09:06:51;;;;;;;42.80;27.40;;;4.10;99.90;;;;;;5074242;28;20929;-67
2022/01/14 09:09:17;;;;;;;40.23;27.17;;;4.10;99.90;;;;;;5074166;28;20205;-68
2022/01/14 09:11:43;;;;;;;39.83;24.70;;;4.00;99.90;;;;;;5074135;28;20199;-67
2022/01/14 09:14:08;;;;;;;44.53;27.60;;;4.00;99.90;;;;;;5073722;28;20189;-68
2022/01/14 09:16:35;;;;;;;42.47;25.30;;;4.00;99.90;;;;;;5073397;28;20413;-67
2022/01/14 09:19:01;;;;;;;42.93;25.40;;;3.90;99.90;;;;;;5073942;28;20198;-67
2022/01/14 09:21:27;;;;;;;43.33;25.17;;;3.80;99.90;;;;;;5074304;28;20409;-68
2022/01/14 09:24:03;;;;;;;36.00;24.63;;;3.70;99.90;;;;;;5074624;28;20417;-68
2022/01/14 09:26:29;;;;;;;42.13;25.70;;;3.80;99.90;;;;;;5073246;28;20181;-67
2022/01/14 09:28:54;;;;;;;50.77;25.67;;;4.00;99.90;;;;;;5072962;28;20507;-68
2022/01/14 09:31:20;;;;;;;43.83;25.97;;;4.10;99.90;;;;;;5054860;28;20421;-68
2022/01/14 09:33:46;;;;;;;43.57;24.53;;;4.20;99.90;;;;;;5073794;28;20173;-69
2022/01/14 09:36:11;;;;;;;41.57;25.33;;;4.20;99.90;;;;;;5055619;28;20221;-68
2022/01/14 09:38:37;;;;;;;43.73;24.07;;;4.20;99.90;;;;;;5074161;28;20198;-67
2022/01/14 09:41:05;;;;;;;42.20;25.93;;;4.30;99.90;;;;;;5073590;28;20321;-67
2022/01/14 09:43:36;;;;;;;39.90;24.23;;;4.20;99.90;;;;;;5074169;28;20232;-67
2022/01/14 09:46:05;;;;;;;37.33;24.30;;;4.20;99.90;;;;;;5073449;28;20505;-67
2022/01/14 09:48:32;;;;;;;49.70;25.00;;;4.30;99.90;;;;;;5074222;28;20449;-68
2022/01/14 09:50:58;;;;;;;39.67;23.63;;;4.10;99.90;;;;;;5076179;28;20507;-67
2022/01/14 09:53:25;;;;;;;45.73;27.37;;;3.80;99.90;;;;;;5076042;28;20404;-67
2022/01/14 09:55:51;;;;;;;44.87;26.00;;;3.80;99.90;;;;;;5075109;28;20404;-67
2022/01/14 09:58:17;;;;;;;55.30;28.40;;;3.80;99.90;;;;;;5074153;28;20424;-68
2022/01/14 10:00:43;;;;;;;48.00;28.93;;;3.90;99.90;;;;;;5074489;28;20963;-67
2022/01/14 10:03:25;;;;;;;58.17;29.10;;;3.80;99.90;;;;;;5056153;28;20179;-68
2022/01/14 10:05:55;;;;;;;58.13;29.67;;;3.70;99.90;;;;;;5073401;28;20408;-67
2022/01/14 10:08:25;;;;;;;58.40;30.40;;;3.50;99.90;;;;;;5074479;28;20416;-67
2022/01/14 10:10:55;;;;;;;52.33;28.27;;;3.50;99.90;;;;;;5075166;28;20660;-68
2022/01/14 10:13:26;;;;;;;50.20;26.60;;;3.60;99.90;;;;;;5074045;28;20896;-67
2022/01/14 10:16:07;;;;;;;63.20;29.97;;;3.80;99.90;;;;;;5073690;28;20407;-67
2022/01/14 10:18:34;;;;;;;50.00;27.47;;;4.00;99.90;;;;;;5073596;28;20417;-67
2022/01/14 10:21:06;;;;;;;51.60;27.30;;;4.10;99.90;;;;;;5073569;28;21145;-66
2022/01/14 10:23:59;;;;;;;53.37;28.63;;;4.20;99.90;;;;;;5074487;28;20379;-67
2022/01/14 10:26:26;;;;;;;49.23;24.43;;;4.10;99.90;;;;;;5071258;28;20421;-68
2022/01/14 10:29:05;;;;;;;62.50;28.07;;;4.00;99.90;;;;;;5076669;28;20560;-67
2022/01/14 10:31:36;;;;;;;50.80;25.83;;;3.90;99.90;;;;;;5065472;28;20484;-68
2022/01/14 10:34:16;;;;;;;55.73;27.83;;;3.90;99.90;;;;;;5058342;28;20411;-67
2022/01/14 10:36:46;;;;;;;50.03;26.70;;;4.10;99.90;;;;;;5057416;28;20418;-67
2022/01/14 10:39:19;;;;;;;53.87;26.97;;;4.20;99.90;;;;;;5056401;28;20440;-67
2022/01/14 10:41:45;;;;;;;56.37;27.93;;;4.30;99.90;;;;;;5060101;28;20409;-67
2022/01/14 10:44:28;;;;;;;49.80;24.17;;;4.50;99.90;;;;;;5064538;28;20777;-68
2022/01/14 10:47:16;;;;;;;52.70;25.13;;;4.50;99.90;;;;;;5065318;28;20437;-68
2022/01/14 10:49:43;;;;;;;52.80;26.00;;;4.30;99.90;;;;;;5068480;28;20541;-66
2022/01/14 10:52:14;;;;;;;49.43;26.80;;;4.30;99.90;;;;;;5072003;28;20411;-67
2022/01/14 10:54:43;;;;;;;49.13;26.00;;;4.30;99.90;;;;;;5078688;28;20387;-68
2022/01/14 10:57:18;;;;;;;53.60;25.97;;;4.50;99.90;;;;;;5079164;28;20430;-68
2022/01/14 10:59:44;;;;;;;49.03;24.87;;;4.60;99.90;;;;;;5079412;28;20418;-68
2022/01/14 11:02:35;;;;;;;45.53;25.63;;;4.70;99.90;;;;;;5078582;28;20424;-68
2022/01/14 11:05:04;;;;;;;52.50;26.07;;;4.80;99.90;;;;;;5044884;28;20425;-67
2022/01/14 11:07:31;;;;;;;47.53;26.63;;;4.90;99.90;;;;;;5083286;28;20424;-67
2022/01/14 11:09:58;;;;;;;52.80;27.47;;;5.00;99.90;;;;;;5090848;28;20471;-68
2022/01/14 11:12:25;;;;;;;56.13;26.70;;;5.00;99.90;;;;;;5093493;28;20387;-68
2022/01/14 11:14:50;;;;;;;58.27;27.50;;;5.10;99.90;;;;;;5092626;28;20565;-67
2022/01/14 11:17:16;;;;;;;47.30;24.80;;;5.10;99.90;;;;;;5092439;28;20421;-68
2022/01/14 11:19:45;;;;;;;49.57;23.13;;;5.20;99.90;;;;;;5074297;28;20416;-68
2022/01/14 11:24:56;;;;;;;53.20;25.43;;;5.30;99.90;;;;;;5082436;28;20418;-69
2022/01/14 11:27:23;;;;;;;51.83;25.37;;;5.30;99.90;;;;;;5080735;28;20408;-67
2022/01/14 11:29:49;;;;;;;57.40;25.40;;;5.40;99.90;;;;;;5076769;28;20459;-67
2022/01/14 11:32:15;;;;;;;46.30;23.10;;;5.40;99.90;;;;;;5058742;28;20431;-68
2022/01/14 11:34:45;;;;;;;48.73;24.23;;;5.30;99.90;;;;;;5055605;28;20980;-68
2022/01/14 11:37:32;;;;;;;36.30;21.40;;;5.40;99.90;;;;;;5055292;28;20466;-68
2022/01/14 11:40:07;;;;;;;46.17;25.47;;;5.50;99.90;;;;;;5055063;28;20453;-70
2022/01/14 11:42:48;;;;;;;45.77;24.20;;;5.50;99.90;;;;;;5055187;28;20915;-68
2022/01/14 11:45:17;;;;;;;45.07;23.77;;;5.50;99.90;;;;;;5055667;28;20760;-68
2022/01/14 11:47:44;;;;;;;43.03;22.43;;;5.40;99.90;;;;;;5037336;28;20958;-67
2022/01/14 11:50:19;;;;;;;47.47;23.47;;;5.40;99.90;;;;;;5037501;28;20566;-69
2022/01/14 11:52:46;;;;;;;42.83;23.73;;;5.50;99.90;;;;;;5055367;28;20424;-67
2022/01/14 11:55:15;;;;;;;49.80;24.97;;;5.50;99.90;;;;;;5055610;28;20424;-68
2022/01/14 11:57:46;;;;;;;43.93;23.33;;;5.60;99.90;;;;;;5055534;28;20464;-68
2022/01/14 12:00:27;;;;;;;36.00;20.47;;;5.60;99.90;;;;;;5057512;28;20409;-67
2022/01/14 12:02:55;;;;;;;39.70;20.60;;;5.70;99.90;;;;;;5069550;28;20443;-67
2022/01/14 12:05:26;;;;;;;41.63;22.20;;;5.80;99.90;;;;;;5062935;28;20449;-66
2022/01/14 12:08:03;;;;;;;48.37;22.80;;;5.80;99.90;;;;;;5087663;28;20440;-68
2022/01/14 12:10:33;;;;;;;45.97;22.60;;;5.80;99.90;;;;;;5088072;28;20459;-68
2022/01/14 12:13:16;;;;;;;45.67;22.00;;;5.80;99.90;;;;;;5076440;28;20487;-68
2022/01/14 12:15:59;;;;;;;46.73;23.00;;;5.80;99.90;;;;;;5076367;28;20485;-67
2022/01/14 12:18:44;;;;;;;51.10;23.80;;;5.80;99.90;;;;;;5078175;28;20435;-68
2022/01/14 12:21:09;;;;;;;55.17;26.13;;;5.80;99.90;;;;;;5076222;28;20795;-68
2022/01/14 12:23:35;;;;;;;52.77;24.17;;;5.90;99.90;;;;;;5076615;28;20400;-68
2022/01/14 12:26:14;;;;;;;44.10;22.43;;;5.90;99.90;;;;;;5074882;28;20173;-68
2022/01/14 12:28:40;;;;;;;47.40;23.20;;;5.90;99.90;;;;;;5095775;22;20203;-67
2022/01/14 12:31:06;;;;;;;51.70;25.37;;;5.90;99.90;;;;;;5046465;28;20425;-69
2022/01/14 12:33:41;;;;;;;43.60;22.90;;;5.90;99.90;;;;;;5054681;28;20411;-69
2022/01/14 12:36:18;;;;;;;47.37;25.40;;;5.90;99.90;;;;;;5051688;28;20247;-68
2022/01/14 12:38:45;;;;;;;54.50;26.40;;;6.00;99.90;;;;;;5053566;28;20431;-68
2022/01/14 12:41:20;;;;;;;42.97;24.10;;;6.00;99.90;;;;;;5052687;28;20411;-69
2022/01/14 12:43:49;;;;;;;53.90;24.07;;;6.00;99.90;;;;;;5052778;28;20408;-69
2022/01/14 12:46:35;;;;;;;55.57;24.83;;;6.00;99.90;;;;;;5052820;28;20409;-68
2022/01/14 12:49:08;;;;;;;43.30;22.50;;;6.00;99.90;;;;;;5052947;28;20478;-67
2022/01/14 12:51:34;;;;;;;47.40;23.93;;;6.10;99.90;;;;;;5052554;28;20413;-69
2022/01/14 12:54:04;;;;;;;42.43;23.57;;;6.10;99.90;;;;;;5052603;28;20409;-69
2022/01/14 12:56:32;;;;;;;38.70;21.97;;;6.10;99.90;;;;;;5052369;28;20401;-68
2022/01/14 12:59:06;;;;;;;29.03;17.70;;;6.10;99.90;;;;;;5051924;28;20428;-68
2022/01/14 13:01:36;;;;;;;23.70;14.50;;;6.10;99.90;;;;;;5052925;28;20411;-69
2022/01/14 13:04:05;;;;;;;28.10;14.97;;;5.90;99.90;;;;;;5052292;28;20917;-68
2022/01/14 13:06:53;;;;;;;23.47;14.77;;;5.60;99.90;;;;;;5052204;28;20413;-69